Terminal Aerodrome Forecast
Issued by NWS

Home | Current Version | Previous Version | Graphics & Text | Print | Product List | Glossary On
Versions: 1 2 3 4 5 6 7 8 9 10 11 12 13 14 15 16 17 18 19 20 21 22 23 24
901
FTUS41 KCLE 081136
TAFFDY
TAF
KFDY 081136Z 0812/0912 25005KT P6SM SCT050 OVC090
     FM081500 28010KT 5SM BR SCT025 OVC035
     FM090200 29009KT P6SM VCSH SCT015 OVC025=

USA.gov is the U.S. government's official web portal to all federal, state and local government web resources and services.